Terminal Aerodrome Forecast
Issued by NWS

Home | Current Version | Previous Version | Text Only | Print | Product List | Glossary On
Versions: 1 2 3 4 5 6 7 8 9 10 11 12
000
FTUS44 KSJT 011100
TAFBBD
TAF
KBBD 011140Z 0112/0212 15006KT P6SM SCT015
      TEMPO 0112/0114 BKN015
     FM011700 17011G17KT P6SM SCT050
     FM012300 15008KT P6SM SCT250
     FM021100 16009KT P6SM SCT015=

USA.gov is the U.S. government's official web portal to all federal, state and local government web resources and services.